Sinegorsk — YJRC5 — position and weather

sailwx.info

Track history (hours):
 
Tides and Currents Weather Stations Pressure Air Temp Water Temp Dewpoint Dewpoint Depression Visibility Wind Speed Wind Dir Waves Ship Positions

Sinegorsk

Last reported at 2014-Oct-19 07:07 UTC. Time now 2014-Oct-21 07:08 UTC.
Position N 46°19' E 030°42'.

Length 133 m; draft 5.2 m.

Type: Cargo ship. MMSI: 576292000.

Date/timePositionNaut miles runAvg speedWind from/ knotsBaromVisibWave heightAir tempDewpointWater temp
2014-Oct-19 07:07N 46°19' E 030°42'300 7.4
2014-Oct-17 14:33N 41°25' E 029°17'179 4.7
2014-Oct-16 00:25N 39°53' E 025°55'7011.5
2014-Oct-15 18:21N 38°44' E 025°43'1012.3
2014-Oct-15 17:33N 38°34' E 025°43'1212.3
2014-Oct-15 16:33N 38°22' E 025°44'1312.0
2014-Oct-15 15:29N 38°09' E 025°44'1211.7
2014-Oct-15 14:30N 37°57' E 025°46'1111.5
2014-Oct-15 13:32N 37°46' E 025°47'1111.3
2014-Oct-15 12:33N 37°35' E 025°48'1110.9
2014-Oct-15 11:34N 37°24' E 025°49'1110.7
2014-Oct-15 10:34N 37°14' E 025°52'1010.4
2014-Oct-15 09:34N 37°06' E 025°60'1110.6
2014-Oct-15 08:33N 36°58' E 026°09'1110.5
2014-Oct-15 07:33N 36°50' E 026°18'1111.2
2014-Oct-15 06:33N 36°42' E 026°28'1211.6
2014-Oct-15 05:34N 36°34' E 026°38'1111.1
2014-Oct-15 04:34N 36°26' E 026°47'1311.3
2014-Oct-15 03:23N 36°16' E 026°59'  
Track history (hours):
 
Tides and Currents Weather Stations Pressure Air Temp Water Temp Dewpoint Dewpoint Depression Visibility Wind Speed Wind Dir Waves Ship Positions

Sinegorsk

Last reported at 2014-Oct-19 07:07 UTC. Time now 2014-Oct-21 07:08 UTC.
Position N 46°19' E 030°42'.

Length 133 m; draft 5.2 m.

Type: Cargo ship. MMSI: 576292000.

Date/timePositionNaut miles runAvg speedWind from/ knotsBaromVisibWave heightAir tempDewpointWater temp
2014-Oct-19 07:07N 46°19' E 030°42'300 7.4
2014-Oct-17 14:33N 41°25' E 029°17'179 4.7
2014-Oct-16 00:25N 39°53' E 025°55'7011.5
2014-Oct-15 18:21N 38°44' E 025°43'1012.3
2014-Oct-15 17:33N 38°34' E 025°43'1212.3
2014-Oct-15 16:33N 38°22' E 025°44'1312.0
2014-Oct-15 15:29N 38°09' E 025°44'1211.7
2014-Oct-15 14:30N 37°57' E 025°46'1111.5
2014-Oct-15 13:32N 37°46' E 025°47'1111.3
2014-Oct-15 12:33N 37°35' E 025°48'1110.9
2014-Oct-15 11:34N 37°24' E 025°49'1110.7
2014-Oct-15 10:34N 37°14' E 025°52'1010.4
2014-Oct-15 09:34N 37°06' E 025°60'1110.6
2014-Oct-15 08:33N 36°58' E 026°09'1110.5
2014-Oct-15 07:33N 36°50' E 026°18'1111.2
2014-Oct-15 06:33N 36°42' E 026°28'1211.6
2014-Oct-15 05:34N 36°34' E 026°38'1111.1
2014-Oct-15 04:34N 36°26' E 026°47'1311.3
2014-Oct-15 03:23N 36°16' E 026°59'  

Dump ship's entire track history